sensor_id;sensor_type;location;lat;lon;timestamp;temperature;humidity
20803;DHT22;10562;-33.856;151.182;2023-04-25T00:00:09;21.60;99.90
20803;DHT22;10562;-33.856;151.182;2023-04-25T00:02:40;21.80;99.90
20803;DHT22;10562;-33.856;151.182;2023-04-25T00:05:11;21.90;99.90
20803;DHT22;10562;-33.856;151.182;2023-04-25T00:07:42;22.00;99.90
20803;DHT22;10562;-33.856;151.182;2023-04-25T00:10:15;22.20;99.90
20803;DHT22;10562;-33.856;151.182;2023-04-25T00:12:46;22.30;99.90
20803;DHT22;10562;-33.856;151.182;2023-04-25T00:15:17;22.40;99.90
20803;DHT22;10562;-33.856;151.182;2023-04-25T00:17:47;22.60;99.90
20803;DHT22;10562;-33.856;151.182;2023-04-25T00:20:20;22.70;99.90
20803;DHT22;10562;-33.856;151.182;2023-04-25T00:22:52;22.80;99.90
20803;DHT22;10562;-33.856;151.182;2023-04-25T00:25:26;23.00;99.90
20803;DHT22;10562;-33.856;151.182;2023-04-25T00:27:57;23.00;99.90
20803;DHT22;10562;-33.856;151.182;2023-04-25T00:30:28;23.00;99.90
20803;DHT22;10562;-33.856;151.182;2023-04-25T00:32:58;23.00;99.90
20803;DHT22;10562;-33.856;151.182;2023-04-25T00:35:29;23.00;99.90
20803;DHT22;10562;-33.856;151.182;2023-04-25T00:38:01;23.10;99.90
20803;DHT22;10562;-33.856;151.182;2023-04-25T00:40:33;23.20;99.90
20803;DHT22;10562;-33.856;151.182;2023-04-25T00:43:04;23.20;99.90
20803;DHT22;10562;-33.856;151.182;2023-04-25T00:45:39;23.40;99.90
20803;DHT22;10562;-33.856;151.182;2023-04-25T00:48:10;23.60;99.90
20803;DHT22;10562;-33.856;151.182;2023-04-25T00:50:41;23.60;99.90
20803;DHT22;10562;-33.856;151.182;2023-04-25T00:53:13;23.60;99.90
20803;DHT22;10562;-33.856;151.182;2023-04-25T00:55:45;23.70;99.90
20803;DHT22;10562;-33.856;151.182;2023-04-25T00:58:18;23.90;99.90
20803;DHT22;10562;-33.856;151.182;2023-04-25T01:00:50;23.80;99.90
20803;DHT22;10562;-33.856;151.182;2023-04-25T01:03:22;23.90;99.90
20803;DHT22;10562;-33.856;151.182;2023-04-25T01:05:54;23.90;99.90
20803;DHT22;10562;-33.856;151.182;2023-04-25T01:08:25;24.10;99.90
20803;DHT22;10562;-33.856;151.182;2023-04-25T01:10:58;24.00;99.90
20803;DHT22;10562;-33.856;151.182;2023-04-25T01:13:29;24.10;99.90
20803;DHT22;10562;-33.856;151.182;2023-04-25T01:16:00;24.10;99.90
20803;DHT22;10562;-33.856;151.182;2023-04-25T01:18:31;24.20;99.90
20803;DHT22;10562;-33.856;151.182;2023-04-25T01:21:09;24.50;99.90
20803;DHT22;10562;-33.856;151.182;2023-04-25T01:23:41;24.70;99.90
20803;DHT22;10562;-33.856;151.182;2023-04-25T01:26:12;24.60;99.90
20803;DHT22;10562;-33.856;151.182;2023-04-25T01:28:43;24.50;99.90
20803;DHT22;10562;-33.856;151.182;2023-04-25T01:31:14;24.80;99.90
20803;DHT22;10562;-33.856;151.182;2023-04-25T01:33:46;24.90;99.90
20803;DHT22;10562;-33.856;151.182;2023-04-25T01:36:19;25.00;99.90
20803;DHT22;10562;-33.856;151.182;2023-04-25T01:38:51;25.10;99.90
20803;DHT22;10562;-33.856;151.182;2023-04-25T01:41:21;25.20;99.90
20803;DHT22;10562;-33.856;151.182;2023-04-25T01:43:53;24.70;99.90
20803;DHT22;10562;-33.856;151.182;2023-04-25T01:46:23;24.40;99.90
20803;DHT22;10562;-33.856;151.182;2023-04-25T01:48:54;24.50;99.90
20803;DHT22;10562;-33.856;151.182;2023-04-25T01:51:27;24.40;99.90
20803;DHT22;10562;-33.856;151.182;2023-04-25T01:54:00;24.50;99.90
20803;DHT22;10562;-33.856;151.182;2023-04-25T01:56:36;24.90;99.90
20803;DHT22;10562;-33.856;151.182;2023-04-25T01:59:07;25.10;99.90
20803;DHT22;10562;-33.856;151.182;2023-04-25T02:01:38;25.60;99.90
20803;DHT22;10562;-33.856;151.182;2023-04-25T02:04:09;25.60;99.90
20803;DHT22;10562;-33.856;151.182;2023-04-25T02:06:42;25.70;99.90
20803;DHT22;10562;-33.856;151.182;2023-04-25T02:09:13;25.20;99.90
20803;DHT22;10562;-33.856;151.182;2023-04-25T02:11:44;25.00;99.90
20803;DHT22;10562;-33.856;151.182;2023-04-25T02:14:15;24.80;99.90
20803;DHT22;10562;-33.856;151.182;2023-04-25T02:16:48;24.80;99.90
20803;DHT22;10562;-33.856;151.182;2023-04-25T02:19:19;24.30;99.90
20803;DHT22;10562;-33.856;151.182;2023-04-25T02:21:52;24.20;99.90
20803;DHT22;10562;-33.856;151.182;2023-04-25T02:24:24;24.00;99.90
20803;DHT22;10562;-33.856;151.182;2023-04-25T02:26:55;24.20;99.90
20803;DHT22;10562;-33.856;151.182;2023-04-25T02:29:26;24.50;99.90
20803;DHT22;10562;-33.856;151.182;2023-04-25T02:31:57;24.60;99.90
20803;DHT22;10562;-33.856;151.182;2023-04-25T02:34:28;24.70;99.90
20803;DHT22;10562;-33.856;151.182;2023-04-25T02:37:00;24.80;99.90
20803;DHT22;10562;-33.856;151.182;2023-04-25T02:39:31;25.10;99.90
20803;DHT22;10562;-33.856;151.182;2023-04-25T02:42:02;25.00;99.90
20803;DHT22;10562;-33.856;151.182;2023-04-25T02:44:33;25.00;99.90
20803;DHT22;10562;-33.856;151.182;2023-04-25T02:47:04;25.10;99.90
20803;DHT22;10562;-33.856;151.182;2023-04-25T02:49:35;25.10;99.90
20803;DHT22;10562;-33.856;151.182;2023-04-25T02:52:08;24.80;99.90
20803;DHT22;10562;-33.856;151.182;2023-04-25T02:54:39;24.30;99.90
20803;DHT22;10562;-33.856;151.182;2023-04-25T02:57:10;24.50;99.90
20803;DHT22;10562;-33.856;151.182;2023-04-25T02:59:41;24.70;99.90
20803;DHT22;10562;-33.856;151.182;2023-04-25T03:02:12;24.90;99.90
20803;DHT22;10562;-33.856;151.182;2023-04-25T03:04:43;24.70;99.90
20803;DHT22;10562;-33.856;151.182;2023-04-25T03:07:15;24.30;99.90
20803;DHT22;10562;-33.856;151.182;2023-04-25T03:09:46;24.10;99.90
20803;DHT22;10562;-33.856;151.182;2023-04-25T03:12:17;24.00;99.90
20803;DHT22;10562;-33.856;151.182;2023-04-25T03:14:48;24.10;99.90
20803;DHT22;10562;-33.856;151.182;2023-04-25T03:17:19;24.00;99.90
20803;DHT22;10562;-33.856;151.182;2023-04-25T03:19:49;23.80;99.90
20803;DHT22;10562;-33.856;151.182;2023-04-25T03:22:22;23.80;99.90
20803;DHT22;10562;-33.856;151.182;2023-04-25T03:24:53;23.90;99.90
20803;DHT22;10562;-33.856;151.182;2023-04-25T03:27:24;23.90;99.90
20803;DHT22;10562;-33.856;151.182;2023-04-25T03:29:54;24.10;99.90
20803;DHT22;10562;-33.856;151.182;2023-04-25T03:32:25;24.20;99.90
20803;DHT22;10562;-33.856;151.182;2023-04-25T03:34:56;24.30;99.90
20803;DHT22;10562;-33.856;151.182;2023-04-25T03:37:29;24.40;99.90
20803;DHT22;10562;-33.856;151.182;2023-04-25T03:40:00;24.50;99.90
20803;DHT22;10562;-33.856;151.182;2023-04-25T03:42:30;24.50;99.90
20803;DHT22;10562;-33.856;151.182;2023-04-25T03:45:01;24.50;99.90
20803;DHT22;10562;-33.856;151.182;2023-04-25T03:47:32;24.60;99.90
20803;DHT22;10562;-33.856;151.182;2023-04-25T03:50:03;24.70;99.90
20803;DHT22;10562;-33.856;151.182;2023-04-25T03:52:35;24.90;99.90
20803;DHT22;10562;-33.856;151.182;2023-04-25T03:55:07;24.90;99.90
20803;DHT22;10562;-33.856;151.182;2023-04-25T03:57:38;24.90;99.90
20803;DHT22;10562;-33.856;151.182;2023-04-25T04:00:10;24.90;99.90
20803;DHT22;10562;-33.856;151.182;2023-04-25T04:02:41;24.90;99.90
20803;DHT22;10562;-33.856;151.182;2023-04-25T04:05:12;24.60;99.90
20803;DHT22;10562;-33.856;151.182;2023-04-25T04:07:45;24.30;99.90
20803;DHT22;10562;-33.856;151.182;2023-04-25T04:10:16;24.20;99.90
20803;DHT22;10562;-33.856;151.182;2023-04-25T04:12:46;24.20;99.90
20803;DHT22;10562;-33.856;151.182;2023-04-25T04:15:17;24.30;99.90
20803;DHT22;10562;-33.856;151.182;2023-04-25T04:17:49;24.30;99.90
20803;DHT22;10562;-33.856;151.182;2023-04-25T04:20:19;24.30;99.90
20803;DHT22;10562;-33.856;151.182;2023-04-25T04:22:52;24.30;99.90
20803;DHT22;10562;-33.856;151.182;2023-04-25T04:25:23;24.20;99.90
20803;DHT22;10562;-33.856;151.182;2023-04-25T04:27:54;24.40;99.90
20803;DHT22;10562;-33.856;151.182;2023-04-25T04:30:25;24.40;99.90
20803;DHT22;10562;-33.856;151.182;2023-04-25T04:32:57;24.40;99.90
20803;DHT22;10562;-33.856;151.182;2023-04-25T04:35:28;24.60;99.90
20803;DHT22;10562;-33.856;151.182;2023-04-25T04:38:01;24.50;99.90
20803;DHT22;10562;-33.856;151.182;2023-04-25T04:40:32;24.40;99.90
20803;DHT22;10562;-33.856;151.182;2023-04-25T04:43:02;24.30;99.90
20803;DHT22;10562;-33.856;151.182;2023-04-25T04:45:33;24.20;99.90
20803;DHT22;10562;-33.856;151.182;2023-04-25T04:48:05;24.20;99.90
20803;DHT22;10562;-33.856;151.182;2023-04-25T04:50:36;24.10;99.90
20803;DHT22;10562;-33.856;151.182;2023-04-25T04:53:09;24.20;99.90
20803;DHT22;10562;-33.856;151.182;2023-04-25T04:55:41;24.20;99.90
20803;DHT22;10562;-33.856;151.182;2023-04-25T04:58:12;24.10;99.90
20803;DHT22;10562;-33.856;151.182;2023-04-25T05:00:42;24.10;99.90
20803;DHT22;10562;-33.856;151.182;2023-04-25T05:03:14;24.10;99.90
20803;DHT22;10562;-33.856;151.182;2023-04-25T05:05:44;24.10;99.90
20803;DHT22;10562;-33.856;151.182;2023-04-25T05:08:17;24.10;99.90
20803;DHT22;10562;-33.856;151.182;2023-04-25T05:10:48;24.00;99.90
20803;DHT22;10562;-33.856;151.182;2023-04-25T05:13:19;23.90;99.90
20803;DHT22;10562;-33.856;151.182;2023-04-25T05:15:49;23.90;99.90
20803;DHT22;10562;-33.856;151.182;2023-04-25T05:18:20;23.90;99.90
20803;DHT22;10562;-33.856;151.182;2023-04-25T05:20:51;23.90;99.90
20803;DHT22;10562;-33.856;151.182;2023-04-25T05:23:24;23.80;99.90
20803;DHT22;10562;-33.856;151.182;2023-04-25T05:25:55;23.60;99.90
20803;DHT22;10562;-33.856;151.182;2023-04-25T05:28:26;23.50;99.90
20803;DHT22;10562;-33.856;151.182;2023-04-25T05:30:57;23.50;99.90
20803;DHT22;10562;-33.856;151.182;2023-04-25T05:33:28;23.50;99.90
20803;DHT22;10562;-33.856;151.182;2023-04-25T05:35:58;23.50;99.90
20803;DHT22;10562;-33.856;151.182;2023-04-25T05:38:31;23.40;99.90
20803;DHT22;10562;-33.856;151.182;2023-04-25T05:41:02;23.30;99.90
20803;DHT22;10562;-33.856;151.182;2023-04-25T05:43:33;23.30;99.90
20803;DHT22;10562;-33.856;151.182;2023-04-25T05:46:04;23.30;99.90
20803;DHT22;10562;-33.856;151.182;2023-04-25T05:48:35;23.20;99.90
20803;DHT22;10562;-33.856;151.182;2023-04-25T05:51:05;23.00;99.90
20803;DHT22;10562;-33.856;151.182;2023-04-25T05:53:38;23.00;99.90
20803;DHT22;10562;-33.856;151.182;2023-04-25T05:56:09;23.00;99.90
20803;DHT22;10562;-33.856;151.182;2023-04-25T05:58:40;22.90;99.90
20803;DHT22;10562;-33.856;151.182;2023-04-25T06:01:11;22.90;99.90
20803;DHT22;10562;-33.856;151.182;2023-04-25T06:03:42;22.70;99.90
20803;DHT22;10562;-33.856;151.182;2023-04-25T06:06:13;22.80;99.90
20803;DHT22;10562;-33.856;151.182;2023-04-25T06:08:46;22.60;99.90
20803;DHT22;10562;-33.856;151.182;2023-04-25T06:11:18;22.70;99.90
20803;DHT22;10562;-33.856;151.182;2023-04-25T06:13:48;22.60;99.90
20803;DHT22;10562;-33.856;151.182;2023-04-25T06:16:19;22.50;99.90
20803;DHT22;10562;-33.856;151.182;2023-04-25T06:18:50;22.50;99.90
20803;DHT22;10562;-33.856;151.182;2023-04-25T06:21:21;22.60;99.90
20803;DHT22;10562;-33.856;151.182;2023-04-25T06:23:53;22.70;99.90
20803;DHT22;10562;-33.856;151.182;2023-04-25T06:26:24;22.70;99.90
20803;DHT22;10562;-33.856;151.182;2023-04-25T06:28:55;22.70;99.90
20803;DHT22;10562;-33.856;151.182;2023-04-25T06:31:26;22.70;99.90
20803;DHT22;10562;-33.856;151.182;2023-04-25T06:33:57;22.80;99.90
20803;DHT22;10562;-33.856;151.182;2023-04-25T06:36:27;22.60;99.90
20803;DHT22;10562;-33.856;151.182;2023-04-25T06:39:00;22.30;99.90
20803;DHT22;10562;-33.856;151.182;2023-04-25T06:41:31;22.00;99.90
20803;DHT22;10562;-33.856;151.182;2023-04-25T06:44:02;21.70;99.90
20803;DHT22;10562;-33.856;151.182;2023-04-25T06:46:32;21.60;99.90
20803;DHT22;10562;-33.856;151.182;2023-04-25T06:49:04;21.40;99.90
20803;DHT22;10562;-33.856;151.182;2023-04-25T06:51:34;21.30;99.90
20803;DHT22;10562;-33.856;151.182;2023-04-25T06:54:07;21.20;99.90
20803;DHT22;10562;-33.856;151.182;2023-04-25T06:56:38;21.00;99.90
20803;DHT22;10562;-33.856;151.182;2023-04-25T06:59:09;21.00;99.90
20803;DHT22;10562;-33.856;151.182;2023-04-25T07:01:40;20.90;99.90
20803;DHT22;10562;-33.856;151.182;2023-04-25T07:04:11;20.80;99.90
20803;DHT22;10562;-33.856;151.182;2023-04-25T07:06:41;20.70;99.90
20803;DHT22;10562;-33.856;151.182;2023-04-25T07:09:16;20.70;99.90
20803;DHT22;10562;-33.856;151.182;2023-04-25T07:11:47;20.70;99.90
20803;DHT22;10562;-33.856;151.182;2023-04-25T07:14:18;20.60;99.90
20803;DHT22;10562;-33.856;151.182;2023-04-25T07:16:49;20.50;99.90
20803;DHT22;10562;-33.856;151.182;2023-04-25T07:19:20;20.40;99.90
20803;DHT22;10562;-33.856;151.182;2023-04-25T07:21:54;20.50;99.90
20803;DHT22;10562;-33.856;151.182;2023-04-25T07:24:26;20.50;99.90
20803;DHT22;10562;-33.856;151.182;2023-04-25T07:26:57;20.40;99.90
20803;DHT22;10562;-33.856;151.182;2023-04-25T07:29:29;20.40;99.90
20803;DHT22;10562;-33.856;151.182;2023-04-25T07:31:59;20.40;99.90
20803;DHT22;10562;-33.856;151.182;2023-04-25T07:34:30;20.20;99.90
20803;DHT22;10562;-33.856;151.182;2023-04-25T07:37:04;20.20;99.90
20803;DHT22;10562;-33.856;151.182;2023-04-25T07:39:37;20.00;99.90
20803;DHT22;10562;-33.856;151.182;2023-04-25T07:42:08;19.80;99.90
20803;DHT22;10562;-33.856;151.182;2023-04-25T07:44:39;19.80;99.90
20803;DHT22;10562;-33.856;151.182;2023-04-25T07:47:10;19.60;99.90
20803;DHT22;10562;-33.856;151.182;2023-04-25T07:49:41;19.60;99.90
20803;DHT22;10562;-33.856;151.182;2023-04-25T07:52:12;19.50;99.90
20803;DHT22;10562;-33.856;151.182;2023-04-25T07:54:45;19.50;99.90
20803;DHT22;10562;-33.856;151.182;2023-04-25T07:57:16;19.50;99.90
20803;DHT22;10562;-33.856;151.182;2023-04-25T07:59:47;19.40;99.90
20803;DHT22;10562;-33.856;151.182;2023-04-25T08:02:18;19.40;99.90
20803;DHT22;10562;-33.856;151.182;2023-04-25T08:04:49;19.30;99.90
20803;DHT22;10562;-33.856;151.182;2023-04-25T08:07:20;19.30;99.90
20803;DHT22;10562;-33.856;151.182;2023-04-25T08:09:53;19.30;99.90
20803;DHT22;10562;-33.856;151.182;2023-04-25T08:12:24;19.30;99.90
20803;DHT22;10562;-33.856;151.182;2023-04-25T08:14:55;19.20;99.90
20803;DHT22;10562;-33.856;151.182;2023-04-25T08:17:26;19.20;99.90
20803;DHT22;10562;-33.856;151.182;2023-04-25T08:19:57;19.20;99.90
20803;DHT22;10562;-33.856;151.182;2023-04-25T08:22:29;19.10;99.90
20803;DHT22;10562;-33.856;151.182;2023-04-25T08:25:02;19.10;99.90
20803;DHT22;10562;-33.856;151.182;2023-04-25T08:27:33;19.00;99.90
20803;DHT22;10562;-33.856;151.182;2023-04-25T08:30:04;19.00;99.90
20803;DHT22;10562;-33.856;151.182;2023-04-25T08:32:36;19.00;99.90
20803;DHT22;10562;-33.856;151.182;2023-04-25T08:35:08;19.00;99.90
20803;DHT22;10562;-33.856;151.182;2023-04-25T08:37:39;18.90;99.90
20803;DHT22;10562;-33.856;151.182;2023-04-25T08:40:14;19.00;99.90
20803;DHT22;10562;-33.856;151.182;2023-04-25T08:42:44;18.90;99.90
20803;DHT22;10562;-33.856;151.182;2023-04-25T08:45:16;18.90;99.90
20803;DHT22;10562;-33.856;151.182;2023-04-25T08:47:47;18.90;99.90
20803;DHT22;10562;-33.856;151.182;2023-04-25T08:50:18;18.80;99.90
20803;DHT22;10562;-33.856;151.182;2023-04-25T08:52:51;18.90;99.90
20803;DHT22;10562;-33.856;151.182;2023-04-25T08:55:25;18.90;99.90
20803;DHT22;10562;-33.856;151.182;2023-04-25T08:57:57;18.80;99.90
20803;DHT22;10562;-33.856;151.182;2023-04-25T09:00:28;18.70;99.90
20803;DHT22;10562;-33.856;151.182;2023-04-25T09:02:59;18.70;99.90
20803;DHT22;10562;-33.856;151.182;2023-04-25T09:05:30;18.70;99.90
20803;DHT22;10562;-33.856;151.182;2023-04-25T09:08:02;18.70;99.90
20803;DHT22;10562;-33.856;151.182;2023-04-25T09:10:34;18.80;99.90
20803;DHT22;10562;-33.856;151.182;2023-04-25T09:13:07;18.80;99.90
20803;DHT22;10562;-33.856;151.182;2023-04-25T09:15:48;18.70;99.90
20803;DHT22;10562;-33.856;151.182;2023-04-25T09:18:26;18.70;99.90
20803;DHT22;10562;-33.856;151.182;2023-04-25T09:20:58;18.60;99.90
20803;DHT22;10562;-33.856;151.182;2023-04-25T09:23:40;18.50;99.90
20803;DHT22;10562;-33.856;151.182;2023-04-25T09:26:15;18.50;99.90
20803;DHT22;10562;-33.856;151.182;2023-04-25T09:28:46;18.60;99.90
20803;DHT22;10562;-33.856;151.182;2023-04-25T09:31:23;18.60;99.90
20803;DHT22;10562;-33.856;151.182;2023-04-25T09:34:00;18.60;99.90
20803;DHT22;10562;-33.856;151.182;2023-04-25T09:36:32;18.70;99.90
20803;DHT22;10562;-33.856;151.182;2023-04-25T09:39:13;18.60;99.90
20803;DHT22;10562;-33.856;151.182;2023-04-25T09:41:53;18.60;99.90
20803;DHT22;10562;-33.856;151.182;2023-04-25T09:44:25;18.70;99.90
20803;DHT22;10562;-33.856;151.182;2023-04-25T09:46:56;18.80;99.90
20803;DHT22;10562;-33.856;151.182;2023-04-25T09:49:27;18.80;99.90
20803;DHT22;10562;-33.856;151.182;2023-04-25T09:51:58;18.80;99.90
20803;DHT22;10562;-33.856;151.182;2023-04-25T09:54:29;18.80;99.90
20803;DHT22;10562;-33.856;151.182;2023-04-25T09:57:04;18.80;99.90
20803;DHT22;10562;-33.856;151.182;2023-04-25T09:59:43;18.80;99.90
20803;DHT22;10562;-33.856;151.182;2023-04-25T10:02:15;18.70;99.90
20803;DHT22;10562;-33.856;151.182;2023-04-25T10:04:49;18.60;99.90
20803;DHT22;10562;-33.856;151.182;2023-04-25T10:07:23;18.60;99.90
20803;DHT22;10562;-33.856;151.182;2023-04-25T10:09:58;18.60;99.90
20803;DHT22;10562;-33.856;151.182;2023-04-25T10:12:34;18.60;99.90
20803;DHT22;10562;-33.856;151.182;2023-04-25T10:15:05;18.70;99.90
20803;DHT22;10562;-33.856;151.182;2023-04-25T10:17:36;18.70;99.90
20803;DHT22;10562;-33.856;151.182;2023-04-25T10:20:08;18.70;99.90
20803;DHT22;10562;-33.856;151.182;2023-04-25T10:22:42;18.80;99.90
20803;DHT22;10562;-33.856;151.182;2023-04-25T10:25:16;18.70;99.90
20803;DHT22;10562;-33.856;151.182;2023-04-25T10:27:51;18.60;99.90
20803;DHT22;10562;-33.856;151.182;2023-04-25T10:30:22;18.60;99.90
20803;DHT22;10562;-33.856;151.182;2023-04-25T10:32:56;18.50;99.90
20803;DHT22;10562;-33.856;151.182;2023-04-25T10:35:28;18.40;99.90
20803;DHT22;10562;-33.856;151.182;2023-04-25T10:38:08;18.20;99.90
20803;DHT22;10562;-33.856;151.182;2023-04-25T10:40:40;18.10;99.90
20803;DHT22;10562;-33.856;151.182;2023-04-25T10:43:37;18.10;99.90
20803;DHT22;10562;-33.856;151.182;2023-04-25T10:46:19;18.00;99.90
20803;DHT22;10562;-33.856;151.182;2023-04-25T10:48:50;17.80;99.90
20803;DHT22;10562;-33.856;151.182;2023-04-25T10:51:22;17.80;99.90
20803;DHT22;10562;-33.856;151.182;2023-04-25T10:54:02;17.70;99.90
20803;DHT22;10562;-33.856;151.182;2023-04-25T10:56:36;17.60;99.90
20803;DHT22;10562;-33.856;151.182;2023-04-25T10:59:10;17.50;99.90
20803;DHT22;10562;-33.856;151.182;2023-04-25T11:01:42;17.60;99.90
20803;DHT22;10562;-33.856;151.182;2023-04-25T11:04:23;17.60;99.90
20803;DHT22;10562;-33.856;151.182;2023-04-25T11:07:10;17.60;99.90
20803;DHT22;10562;-33.856;151.182;2023-04-25T11:09:46;17.50;99.90
20803;DHT22;10562;-33.856;151.182;2023-04-25T11:12:17;17.50;99.90
20803;DHT22;10562;-33.856;151.182;2023-04-25T11:14:50;17.40;99.90
20803;DHT22;10562;-33.856;151.182;2023-04-25T11:17:22;17.30;99.90
20803;DHT22;10562;-33.856;151.182;2023-04-25T11:19:55;17.40;99.90
20803;DHT22;10562;-33.856;151.182;2023-04-25T11:22:27;17.30;99.90
20803;DHT22;10562;-33.856;151.182;2023-04-25T11:25:00;17.30;99.90
20803;DHT22;10562;-33.856;151.182;2023-04-25T11:27:34;17.20;99.90
20803;DHT22;10562;-33.856;151.182;2023-04-25T11:30:17;17.20;99.90
20803;DHT22;10562;-33.856;151.182;2023-04-25T11:32:48;17.10;99.90
20803;DHT22;10562;-33.856;151.182;2023-04-25T11:35:20;17.10;99.90
20803;DHT22;10562;-33.856;151.182;2023-04-25T11:37:50;17.10;99.90
20803;DHT22;10562;-33.856;151.182;2023-04-25T11:40:21;17.10;99.90
20803;DHT22;10562;-33.856;151.182;2023-04-25T11:42:52;17.10;99.90
20803;DHT22;10562;-33.856;151.182;2023-04-25T11:45:25;17.10;99.90
20803;DHT22;10562;-33.856;151.182;2023-04-25T11:47:56;17.20;99.90
20803;DHT22;10562;-33.856;151.182;2023-04-25T11:50:29;17.20;99.90
20803;DHT22;10562;-33.856;151.182;2023-04-25T11:53:00;17.20;99.90
20803;DHT22;10562;-33.856;151.182;2023-04-25T11:55:31;17.10;99.90
20803;DHT22;10562;-33.856;151.182;2023-04-25T11:58:02;17.10;99.90
20803;DHT22;10562;-33.856;151.182;2023-04-25T12:00:35;17.20;99.90
20803;DHT22;10562;-33.856;151.182;2023-04-25T12:03:10;17.10;99.90
20803;DHT22;10562;-33.856;151.182;2023-04-25T12:05:41;17.10;99.90
20803;DHT22;10562;-33.856;151.182;2023-04-25T12:08:12;17.00;99.90
20803;DHT22;10562;-33.856;151.182;2023-04-25T12:10:45;17.00;99.90
20803;DHT22;10562;-33.856;151.182;2023-04-25T12:13:22;16.90;99.90
20803;DHT22;10562;-33.856;151.182;2023-04-25T12:15:55;16.90;99.90
20803;DHT22;10562;-33.856;151.182;2023-04-25T12:18:26;16.90;99.90
20803;DHT22;10562;-33.856;151.182;2023-04-25T12:20:59;16.90;99.90
20803;DHT22;10562;-33.856;151.182;2023-04-25T12:23:30;16.90;99.90
20803;DHT22;10562;-33.856;151.182;2023-04-25T12:26:00;16.90;99.90
20803;DHT22;10562;-33.856;151.182;2023-04-25T12:28:33;16.90;99.90
20803;DHT22;10562;-33.856;151.182;2023-04-25T12:31:06;17.00;99.90
20803;DHT22;10562;-33.856;151.182;2023-04-25T12:33:38;17.00;99.90
20803;DHT22;10562;-33.856;151.182;2023-04-25T12:36:10;17.10;99.90
20803;DHT22;10562;-33.856;151.182;2023-04-25T12:38:42;17.10;99.90
20803;DHT22;10562;-33.856;151.182;2023-04-25T12:41:12;17.00;99.90
20803;DHT22;10562;-33.856;151.182;2023-04-25T12:43:43;16.90;99.90
20803;DHT22;10562;-33.856;151.182;2023-04-25T12:46:16;16.90;99.90
20803;DHT22;10562;-33.856;151.182;2023-04-25T12:48:47;16.90;99.90
20803;DHT22;10562;-33.856;151.182;2023-04-25T12:51:17;16.90;99.90
20803;DHT22;10562;-33.856;151.182;2023-04-25T12:53:48;16.80;99.90
20803;DHT22;10562;-33.856;151.182;2023-04-25T12:56:20;16.90;99.90
20803;DHT22;10562;-33.856;151.182;2023-04-25T12:58:51;17.00;99.90
20803;DHT22;10562;-33.856;151.182;2023-04-25T13:01:24;16.90;99.90
20803;DHT22;10562;-33.856;151.182;2023-04-25T13:03:55;16.90;99.90
20803;DHT22;10562;-33.856;151.182;2023-04-25T13:06:26;16.80;99.90
20803;DHT22;10562;-33.856;151.182;2023-04-25T13:08:57;16.80;99.90
20803;DHT22;10562;-33.856;151.182;2023-04-25T13:11:28;16.70;99.90
20803;DHT22;10562;-33.856;151.182;2023-04-25T13:14:00;16.70;99.90
20803;DHT22;10562;-33.856;151.182;2023-04-25T13:16:33;16.70;99.90
20803;DHT22;10562;-33.856;151.182;2023-04-25T13:19:03;16.60;99.90
20803;DHT22;10562;-33.856;151.182;2023-04-25T13:21:35;16.60;99.90
20803;DHT22;10562;-33.856;151.182;2023-04-25T13:24:07;16.60;99.90
20803;DHT22;10562;-33.856;151.182;2023-04-25T13:26:38;16.50;99.90
20803;DHT22;10562;-33.856;151.182;2023-04-25T13:29:08;16.50;99.90
20803;DHT22;10562;-33.856;151.182;2023-04-25T13:31:41;16.50;99.90
20803;DHT22;10562;-33.856;151.182;2023-04-25T13:34:12;16.40;99.90
20803;DHT22;10562;-33.856;151.182;2023-04-25T13:36:43;16.40;99.90
20803;DHT22;10562;-33.856;151.182;2023-04-25T13:39:14;16.40;99.90
20803;DHT22;10562;-33.856;151.182;2023-04-25T13:41:45;16.40;99.90
20803;DHT22;10562;-33.856;151.182;2023-04-25T13:44:16;16.30;99.90
20803;DHT22;10562;-33.856;151.182;2023-04-25T13:46:48;16.20;99.90
20803;DHT22;10562;-33.856;151.182;2023-04-25T13:49:19;16.10;99.90
20803;DHT22;10562;-33.856;151.182;2023-04-25T13:51:50;16.00;99.90
20803;DHT22;10562;-33.856;151.182;2023-04-25T13:54:21;16.00;99.90
20803;DHT22;10562;-33.856;151.182;2023-04-25T13:56:52;16.00;99.90
20803;DHT22;10562;-33.856;151.182;2023-04-25T13:59:26;15.90;99.90
20803;DHT22;10562;-33.856;151.182;2023-04-25T14:01:59;15.90;99.90
20803;DHT22;10562;-33.856;151.182;2023-04-25T14:04:30;15.90;99.90
20803;DHT22;10562;-33.856;151.182;2023-04-25T14:07:01;15.80;99.90
20803;DHT22;10562;-33.856;151.182;2023-04-25T14:09:32;15.80;99.90
20803;DHT22;10562;-33.856;151.182;2023-04-25T14:12:03;15.80;99.90
20803;DHT22;10562;-33.856;151.182;2023-04-25T14:14:34;15.80;99.90
20803;DHT22;10562;-33.856;151.182;2023-04-25T14:17:07;15.70;99.90
20803;DHT22;10562;-33.856;151.182;2023-04-25T14:19:38;15.70;99.90
20803;DHT22;10562;-33.856;151.182;2023-04-25T14:22:11;15.70;99.90
20803;DHT22;10562;-33.856;151.182;2023-04-25T14:24:42;15.60;99.90
20803;DHT22;10562;-33.856;151.182;2023-04-25T14:27:12;15.60;99.90
20803;DHT22;10562;-33.856;151.182;2023-04-25T14:29:43;15.60;99.90
20803;DHT22;10562;-33.856;151.182;2023-04-25T14:32:17;15.60;99.90
20803;DHT22;10562;-33.856;151.182;2023-04-25T14:34:48;15.60;99.90
20803;DHT22;10562;-33.856;151.182;2023-04-25T14:37:19;15.60;99.90
20803;DHT22;10562;-33.856;151.182;2023-04-25T14:39:49;15.50;99.90
20803;DHT22;10562;-33.856;151.182;2023-04-25T14:42:20;15.50;99.90
20803;DHT22;10562;-33.856;151.182;2023-04-25T14:44:51;15.50;99.90
20803;DHT22;10562;-33.856;151.182;2023-04-25T14:47:24;15.50;99.90
20803;DHT22;10562;-33.856;151.182;2023-04-25T14:49:55;15.50;99.90
20803;DHT22;10562;-33.856;151.182;2023-04-25T14:52:26;15.40;99.90
20803;DHT22;10562;-33.856;151.182;2023-04-25T14:54:57;15.50;99.90
20803;DHT22;10562;-33.856;151.182;2023-04-25T14:57:28;15.50;99.90
20803;DHT22;10562;-33.856;151.182;2023-04-25T14:59:58;15.50;99.90
20803;DHT22;10562;-33.856;151.182;2023-04-25T15:02:31;15.50;99.90
20803;DHT22;10562;-33.856;151.182;2023-04-25T15:05:02;15.50;99.90
20803;DHT22;10562;-33.856;151.182;2023-04-25T15:07:33;15.60;99.90
20803;DHT22;10562;-33.856;151.182;2023-04-25T15:10:04;15.50;99.90
20803;DHT22;10562;-33.856;151.182;2023-04-25T15:12:41;15.40;99.90
20803;DHT22;10562;-33.856;151.182;2023-04-25T15:15:12;15.40;99.90